Time;durP1;ratioP1;P1;durP2;ratioP2;P2;SDS_P1;SDS_P2;PMS_P1;PMS_P2;Temp;Humidity;BMP_temperature;BMP_pressure;BME280_temperature;BME280_humidity;BME280_pressure;Samples;Min_cycle;Max_cycle;Signal;HPM_P1;HPM_P2
2022/03/24 00:01:41;;;;;;;191.15;166.88;;;;;;;16.07;28.38;94683.66;5117369;27;20456;-61
2022/03/24 00:04:07;;;;;;;191.10;167.93;;;;;;;16.05;28.45;94683.31;5111791;27;20471;-61
2022/03/24 00:06:33;;;;;;;186.48;164.63;;;;;;;16.06;28.34;94681.38;5122551;27;20705;-61
2022/03/24 00:08:59;;;;;;;190.45;167.57;;;;;;;16.07;28.41;94685.59;5125271;27;20043;-61
2022/03/24 00:11:24;;;;;;;203.77;177.68;;;;;;;16.06;28.24;94682.13;5112237;27;20049;-61
2022/03/24 00:13:50;;;;;;;189.73;165.38;;;;;;;16.06;28.42;94675.97;5123858;27;20058;-60
2022/03/24 00:16:17;;;;;;;186.20;163.07;;;;;;;16.06;28.36;94676.75;5120253;27;20103;-62
2022/03/24 00:18:44;;;;;;;186.95;163.00;;;;;;;16.06;28.46;94676.75;5118309;27;20048;-61
2022/03/24 00:21:09;;;;;;;193.13;170.15;;;;;;;16.06;28.57;94675.97;5117593;27;20066;-61
2022/03/24 00:23:35;;;;;;;186.45;161.05;;;;;;;16.05;28.45;94680.63;5120642;27;20083;-61
2022/03/24 00:26:01;;;;;;;187.73;164.25;;;;;;;16.06;28.42;94678.69;5114938;27;20047;-61
2022/03/24 00:28:26;;;;;;;189.68;167.98;;;;;;;16.06;28.53;94681.38;5117369;27;20043;-62
2022/03/24 00:30:52;;;;;;;186.68;162.52;;;;;;;16.06;28.54;94675.97;5125508;27;20193;-61
2022/03/24 00:33:18;;;;;;;189.90;165.10;;;;;;;16.06;28.40;94676.75;5121906;27;20051;-61
2022/03/24 00:35:44;;;;;;;188.57;164.50;;;;;;;16.04;28.42;94676.41;5115295;27;20047;-61
2022/03/24 00:38:09;;;;;;;186.80;163.93;;;;;;;16.04;28.52;94672.94;5119712;27;20054;-62
2022/03/24 00:40:35;;;;;;;192.63;166.70;;;;;;;16.03;28.43;94672.19;5120178;27;20130;-62
2022/03/24 00:43:01;;;;;;;191.18;167.63;;;;;;;16.03;28.36;94671.44;5121018;27;20050;-61
2022/03/24 00:45:27;;;;;;;189.68;166.35;;;;;;;16.04;28.49;94667.56;5122156;27;20053;-61
2022/03/24 00:47:53;;;;;;;190.25;166.90;;;;;;;16.03;28.50;94672.19;5115549;27;20621;-60
2022/03/24 00:50:20;;;;;;;186.85;162.07;;;;;;;16.04;28.57;94660.22;5119147;27;20077;-62
2022/03/24 00:52:45;;;;;;;191.02;167.10;;;;;;;16.04;28.52;94668.31;5117831;27;20062;-61
2022/03/24 00:55:17;;;;;;;193.93;169.65;;;;;;;16.05;28.41;94666.38;5119491;27;20050;-62
2022/03/24 00:57:45;;;;;;;185.30;163.48;;;;;;;16.04;28.70;94664.84;5116782;27;20044;-62
2022/03/24 01:00:16;;;;;;;187.38;162.82;;;;;;;16.04;28.46;94670.25;5117609;27;20047;-62
2022/03/24 01:02:48;;;;;;;187.13;164.77;;;;;;;16.02;28.46;94656.44;5115708;27;20571;-61
2022/03/24 01:05:16;;;;;;;189.57;166.32;;;;;;;16.03;28.69;94660.63;5115559;27;20035;-62
2022/03/24 01:07:42;;;;;;;189.00;165.15;;;;;;;16.02;28.46;94662.56;5124018;27;20055;-61
2022/03/24 01:10:11;;;;;;;188.93;166.05;;;;;;;16.02;28.54;94662.56;5124763;27;20062;-62
2022/03/24 01:12:39;;;;;;;190.50;166.18;;;;;;;16.01;28.52;94652.97;5118019;27;20047;-61
2022/03/24 01:15:10;;;;;;;185.68;161.02;;;;;;;16.03;28.49;94655.25;5119034;27;20046;-61
2022/03/24 01:17:36;;;;;;;193.32;170.00;;;;;;;16.02;28.63;94649.09;5114847;27;20043;-61
2022/03/24 01:20:03;;;;;;;192.63;168.05;;;;;;;16.05;28.67;94652.88;5115318;27;20039;-61
2022/03/24 01:22:29;;;;;;;185.73;162.20;;;;;;;16.03;28.68;94647.91;5121466;27;20100;-61
2022/03/24 01:24:56;;;;;;;188.48;164.63;;;;;;;16.04;28.93;94643.28;5123999;27;20092;-61
2022/03/24 01:27:27;;;;;;;188.35;165.80;;;;;;;16.03;28.76;94658.69;5115592;27;20419;-60
2022/03/24 01:29:57;;;;;;;187.38;164.63;;;;;;;16.03;28.70;94647.91;5123531;27;20143;-60
2022/03/24 01:32:26;;;;;;;185.18;162.90;;;;;;;16.03;29.07;94647.16;5130542;27;20047;-61
2022/03/24 01:34:52;;;;;;;185.70;163.30;;;;;;;16.02;28.82;94640.25;5116272;27;20492;-61
2022/03/24 01:37:18;;;;;;;184.65;162.13;;;;;;;16.02;28.77;94640.25;5119683;27;20184;-61
2022/03/24 01:39:44;;;;;;;182.23;161.07;;;;;;;16.02;28.71;94640.25;5120897;27;20118;-61
2022/03/24 01:42:09;;;;;;;180.63;156.95;;;;;;;16.02;28.83;94640.25;5121650;27;20667;-61
2022/03/24 01:44:35;;;;;;;190.18;166.88;;;;;;;16.01;28.76;94636.03;5109745;27;20406;-61
2022/03/24 01:47:05;;;;;;;189.50;165.32;;;;;;;16.01;28.86;94628.69;5116727;27;20063;-61
2022/03/24 01:49:34;;;;;;;188.88;166.73;;;;;;;16.02;28.84;94637.53;5118976;27;20078;-61
2022/03/24 01:52:00;;;;;;;192.60;168.47;;;;;;;16.00;28.95;94624.47;5116466;27;20063;-62
2022/03/24 01:54:30;;;;;;;187.73;165.35;;;;;;;16.00;28.80;94629.88;5123504;27;20049;-61
2022/03/24 01:56:56;;;;;;;191.23;167.77;;;;;;;16.00;28.84;94629.88;5123573;27;20454;-61
2022/03/24 01:59:22;;;;;;;193.70;169.48;;;;;;;16.00;28.78;94623.72;5128686;27;20118;-61
2022/03/24 02:01:48;;;;;;;190.48;166.43;;;;;;;15.98;28.82;94618.75;5114048;27;20506;-61
2022/03/24 02:04:15;;;;;;;191.65;168.93;;;;;;;15.99;28.88;94628.34;5120650;27;20043;-61
2022/03/24 02:06:40;;;;;;;187.75;163.20;;;;;;;15.99;28.70;94627.59;5124451;27;20035;-61
2022/03/24 02:09:07;;;;;;;188.85;164.50;;;;;;;15.98;28.72;94626.09;5115949;27;20058;-61
2022/03/24 02:11:36;;;;;;;207.52;178.88;;;;;;;15.99;28.92;94622.19;5120021;27;20111;-61
2022/03/24 02:14:03;;;;;;;188.63;165.00;;;;;;;15.99;29.00;94617.56;5110439;27;20447;-61
2022/03/24 02:16:34;;;;;;;197.95;171.77;;;;;;;15.99;29.03;94622.19;5113092;27;20066;-61
2022/03/24 02:19:17;;;;;;;186.93;163.45;;;;;;;15.98;29.09;94621.44;5114481;27;20471;-61
2022/03/24 02:21:45;;;;;;;187.80;163.63;;;;;;;15.99;29.16;94614.09;5112692;27;20046;-60
2022/03/24 02:24:13;;;;;;;186.55;162.27;;;;;;;15.98;29.19;94618.00;5118594;27;20412;-61
2022/03/24 02:26:41;;;;;;;190.10;166.05;;;;;;;15.97;28.97;94614.53;5121375;27;20380;-61
2022/03/24 02:29:07;;;;;;;192.57;167.60;;;;;;;15.96;28.93;94613.03;5121158;27;20523;-60
2022/03/24 02:31:38;;;;;;;193.95;168.25;;;;;;;15.97;28.98;94613.78;5112539;27;20132;-61
2022/03/24 02:36:50;;;;;;;188.50;163.95;;;;;;;15.95;28.97;94613.44;5113533;27;20047;-60
2022/03/24 02:39:16;;;;;;;190.57;164.93;;;;;;;15.94;28.94;94612.69;5119317;27;20123;-60
2022/03/24 02:41:46;;;;;;;189.48;166.13;;;;;;;15.95;29.01;94608.81;5111437;27;20551;-61
2022/03/24 02:44:14;;;;;;;190.25;165.18;;;;;;;15.94;28.91;94611.94;5115228;27;20041;-60
2022/03/24 02:46:47;;;;;;;188.23;164.43;;;;;;;15.94;28.91;94610.00;5122911;27;20122;-61
2022/03/24 02:49:24;;;;;;;198.13;171.68;;;;;;;15.94;28.85;94609.22;5121720;27;20039;-60
2022/03/24 02:51:50;;;;;;;189.55;165.98;;;;;;;15.94;28.92;94610.00;5116212;27;20467;-60
2022/03/24 02:54:17;;;;;;;194.85;171.57;;;;;;;15.93;29.08;94605.78;5112141;27;20043;-60
2022/03/24 02:56:43;;;;;;;189.68;165.82;;;;;;;15.94;28.88;94606.53;5117217;27;20526;-60
2022/03/24 02:59:10;;;;;;;191.07;165.27;;;;;;;15.93;28.97;94611.16;5110540;27;20717;-61
2022/03/24 03:01:44;;;;;;;184.05;161.35;;;;;;;15.91;28.91;94600.06;5119626;27;20559;-61
2022/03/24 03:04:12;;;;;;;188.57;164.60;;;;;;;15.94;28.97;94614.63;5115944;27;20063;-61
2022/03/24 03:06:39;;;;;;;191.75;167.40;;;;;;;15.93;28.99;94610.41;5123462;27;20051;-61
2022/03/24 03:09:05;;;;;;;192.07;166.73;;;;;;;15.92;29.09;94612.34;5117181;27;20398;-59
2022/03/24 03:11:31;;;;;;;202.10;175.25;;;;;;;15.93;28.80;94616.56;5117228;27;20131;-61
2022/03/24 03:13:58;;;;;;;188.13;164.10;;;;;;;15.92;28.81;94614.28;5118096;27;20452;-61
2022/03/24 03:16:23;;;;;;;195.80;168.00;;;;;;;15.91;28.83;94616.22;5114620;27;20118;-60
2022/03/24 03:18:49;;;;;;;188.10;165.10;;;;;;;15.93;28.80;94618.50;5116151;27;20069;-62
2022/03/24 03:21:16;;;;;;;196.32;172.38;;;;;;;15.91;28.87;94618.94;5111318;27;20032;-60
2022/03/24 03:23:43;;;;;;;188.63;163.70;;;;;;;15.91;28.99;94621.63;5123432;27;20035;-61
2022/03/24 03:26:12;;;;;;;192.02;166.60;;;;;;;15.92;28.89;94617.00;5132713;27;20415;-61
2022/03/24 03:28:39;;;;;;;185.63;160.30;;;;;;;15.91;28.89;94618.16;5106688;27;20134;-61
2022/03/24 03:31:05;;;;;;;187.90;162.02;;;;;;;15.91;28.89;94616.22;5113124;27;20028;-59
2022/03/24 03:33:32;;;;;;;195.13;171.23;;;;;;;15.90;28.94;94616.66;5119086;27;20406;-60
2022/03/24 03:35:58;;;;;;;189.18;165.82;;;;;;;15.90;28.83;94619.34;5122184;27;20495;-61
2022/03/24 03:38:24;;;;;;;188.18;164.30;;;;;;;15.89;28.83;94623.22;5117396;27;20059;-60
2022/03/24 03:40:52;;;;;;;186.10;161.55;;;;;;;15.89;28.95;94618.59;5105650;28;20044;-61
2022/03/24 03:43:18;;;;;;;182.38;160.80;;;;;;;15.90;28.90;94616.66;5108705;27;20046;-61
2022/03/24 03:45:44;;;;;;;186.05;161.43;;;;;;;15.89;28.81;94623.22;5114465;27;20047;-61
2022/03/24 03:48:10;;;;;;;189.02;163.57;;;;;;;15.89;28.73;94617.84;5124893;27;20070;-61
2022/03/24 03:50:36;;;;;;;185.77;163.30;;;;;;;15.88;28.79;94622.47;5127187;27;20051;-61
2022/03/24 03:53:02;;;;;;;190.75;166.63;;;;;;;15.88;28.84;94611.69;5123273;27;20039;-61
2022/03/24 03:55:28;;;;;;;185.10;163.48;;;;;;;15.87;28.88;94612.88;5112986;27;20804;-60
2022/03/24 03:57:54;;;;;;;187.70;163.02;;;;;;;15.87;28.75;94614.81;5121558;27;20108;-60
2022/03/24 04:03:05;;;;;;;185.35;162.65;;;;;;;15.86;28.74;94618.69;5120711;27;20051;-60
2022/03/24 04:05:33;;;;;;;190.10;165.52;;;;;;;15.85;28.15;94612.53;5120217;27;20039;-61
2022/03/24 04:08:00;;;;;;;187.23;163.13;;;;;;;15.86;28.78;94610.59;5123946;27;20048;-60
2022/03/24 04:10:27;;;;;;;186.93;162.85;;;;;;;15.85;28.44;94612.53;5117909;28;20047;-61
2022/03/24 04:12:59;;;;;;;189.10;164.93;;;;;;;15.84;28.76;94616.41;5116956;27;20039;-61
2022/03/24 04:15:25;;;;;;;191.60;166.57;;;;;;;15.86;28.83;94608.66;5123949;27;20515;-61
2022/03/24 04:17:53;;;;;;;189.02;164.45;;;;;;;15.84;28.91;94611.03;5113857;27;20046;-60
2022/03/24 04:20:22;;;;;;;190.18;163.82;;;;;;;15.82;28.79;94608.75;5125343;27;20487;-61
2022/03/24 04:22:50;;;;;;;190.48;164.60;;;;;;;15.84;28.62;94610.25;5120384;27;20046;-61
2022/03/24 04:25:16;;;;;;;187.90;163.40;;;;;;;15.84;28.64;94613.72;5122469;28;20058;-61
2022/03/24 04:27:42;;;;;;;188.90;162.40;;;;;;;15.84;28.98;94615.66;5111118;27;20562;-61
2022/03/24 04:30:08;;;;;;;191.05;166.60;;;;;;;15.82;28.79;94610.69;5120923;27;20067;-61
2022/03/24 04:32:34;;;;;;;189.77;164.93;;;;;;;15.82;28.77;94611.44;5112672;27;20044;-61
2022/03/24 04:35:00;;;;;;;187.82;163.88;;;;;;;15.83;28.66;94617.59;5119559;28;20104;-61
2022/03/24 04:37:26;;;;;;;187.05;164.43;;;;;;;15.81;28.73;94615.31;5112071;27;20685;-61
2022/03/24 04:39:51;;;;;;;183.98;160.02;;;;;;;15.80;28.90;94613.03;5124240;27;20043;-61
2022/03/24 04:42:17;;;;;;;202.35;174.93;;;;;;;15.82;28.66;94610.69;5119480;27;20054;-61
2022/03/24 04:44:42;;;;;;;187.52;162.80;;;;;;;15.81;28.64;94606.47;5119941;27;20035;-60
2022/03/24 04:47:08;;;;;;;189.07;164.25;;;;;;;15.80;28.70;94613.03;5118318;27;20047;-61
2022/03/24 04:49:33;;;;;;;189.52;162.95;;;;;;;15.82;28.62;94608.00;5111264;27;20047;-61
2022/03/24 04:51:59;;;;;;;191.32;166.40;;;;;;;15.80;28.71;94605.72;5108900;27;20043;-61
2022/03/24 04:54:24;;;;;;;191.82;165.05;;;;;;;15.82;28.76;94613.38;5118486;27;20077;-61
2022/03/24 04:56:50;;;;;;;190.55;163.60;;;;;;;15.80;28.76;94613.03;5116244;27;20054;-61
2022/03/24 04:59:15;;;;;;;187.77;163.07;;;;;;;15.81;28.83;94619.97;5116542;27;20574;-61
2022/03/24 05:01:41;;;;;;;187.23;162.15;;;;;;;15.83;28.90;94620.28;5113436;27;20047;-61
2022/03/24 05:04:07;;;;;;;187.48;163.20;;;;;;;15.82;28.90;94621.47;5125446;27;20158;-61
2022/03/24 05:06:34;;;;;;;189.63;166.15;;;;;;;15.81;28.88;94623.41;5127960;27;20040;-61
2022/03/24 05:09:00;;;;;;;189.43;165.27;;;;;;;15.83;28.85;94625.69;5125791;27;20035;-59
2022/03/24 05:11:25;;;;;;;198.88;172.70;;;;;;;15.85;28.78;94628.72;5116563;27;20825;-59
2022/03/24 05:13:51;;;;;;;190.00;163.65;;;;;;;15.82;28.90;94624.16;5119566;27;20049;-62
2022/03/24 05:16:18;;;;;;;194.50;167.05;;;;;;;15.84;28.96;94626.44;5116351;27;20085;-60
2022/03/24 05:18:43;;;;;;;188.55;164.38;;;;;;;15.85;28.70;94638.75;5116267;27;20118;-60
2022/03/24 05:21:09;;;;;;;190.02;165.88;;;;;;;15.85;28.67;94641.44;5113702;27;20130;-60
2022/03/24 05:23:35;;;;;;;192.30;166.18;;;;;;;15.87;28.77;94633.69;5113139;27;20040;-60
2022/03/24 05:26:01;;;;;;;188.38;164.57;;;;;;;15.87;28.76;94639.09;5109180;28;20046;-60
2022/03/24 05:28:26;;;;;;;190.50;165.73;;;;;;;15.86;28.63;94635.63;5117969;27;20039;-61
2022/03/24 05:30:52;;;;;;;192.88;166.07;;;;;;;15.89;28.55;94642.88;5116072;27;20710;-61
2022/03/24 05:33:17;;;;;;;191.13;165.98;;;;;;;15.91;28.49;94647.84;5119729;27;20364;-61
2022/03/24 05:35:43;;;;;;;193.63;167.88;;;;;;;15.91;28.54;94637.81;5120631;27;20089;-61
2022/03/24 05:38:09;;;;;;;194.10;169.40;;;;;;;15.92;28.26;94636.63;5114443;27;20055;-61
2022/03/24 05:40:35;;;;;;;198.45;173.63;;;;;;;15.93;28.40;94638.16;5112756;27;20059;-60
2022/03/24 05:43:01;;;;;;;190.57;166.38;;;;;;;15.95;28.45;94643.13;5111825;27;20097;-61
2022/03/24 05:45:27;;;;;;;190.73;165.15;;;;;;;15.94;28.28;94645.06;5116201;27;20032;-61
2022/03/24 05:47:52;;;;;;;190.30;165.65;;;;;;;15.95;28.39;94648.50;5116511;27;20039;-61
2022/03/24 05:50:18;;;;;;;189.93;166.02;;;;;;;15.96;28.38;94652.72;5118559;27;20075;-61
2022/03/24 05:52:45;;;;;;;191.00;166.45;;;;;;;15.97;28.30;94651.53;5120425;27;20086;-60
2022/03/24 05:55:11;;;;;;;189.13;164.38;;;;;;;15.97;28.46;94648.84;5113749;27;20047;-60
2022/03/24 05:57:36;;;;;;;187.90;166.00;;;;;;;15.98;28.36;94643.03;5119553;27;20070;-60
2022/03/24 06:00:06;;;;;;;189.23;166.00;;;;;;;15.98;28.37;94643.03;5124911;27;20046;-61
2022/03/24 06:02:33;;;;;;;189.30;165.00;;;;;;;15.98;28.36;94648.41;5109149;27;20051;-60
2022/03/24 06:04:59;;;;;;;189.88;167.57;;;;;;;15.99;28.36;94649.94;5123312;27;20433;-60
2022/03/24 06:07:25;;;;;;;191.65;169.68;;;;;;;15.98;28.66;94643.03;5122549;27;20051;-60
2022/03/24 06:09:51;;;;;;;198.38;173.32;;;;;;;15.99;28.25;94643.78;5109895;27;20047;-61
2022/03/24 06:12:17;;;;;;;204.45;178.65;;;;;;;15.98;28.21;94645.72;5110760;27;20112;-60
2022/03/24 06:14:43;;;;;;;187.73;164.18;;;;;;;16.00;28.26;94648.00;5106668;27;20043;-61
2022/03/24 06:17:09;;;;;;;190.23;166.50;;;;;;;16.00;28.26;94643.34;5122771;27;20143;-61
2022/03/24 06:19:36;;;;;;;189.77;164.60;;;;;;;16.01;28.22;94647.56;5125629;27;20151;-61
2022/03/24 06:22:05;;;;;;;191.50;167.90;;;;;;;16.04;28.29;94643.28;5114456;27;20108;-61
2022/03/24 06:24:31;;;;;;;189.17;166.00;;;;;;;16.04;28.41;94648.66;5108769;27;20080;-60
2022/03/24 06:26:57;;;;;;;186.30;162.63;;;;;;;16.05;28.47;94650.19;5117881;27;20050;-61
2022/03/24 06:29:22;;;;;;;190.55;166.88;;;;;;;16.04;28.44;94648.66;5120064;27;20055;-61
2022/03/24 06:31:48;;;;;;;189.73;166.45;;;;;;;16.05;28.50;94650.94;5123966;27;20684;-61
2022/03/24 06:34:15;;;;;;;189.35;166.55;;;;;;;16.06;28.35;94651.69;5110673;27;20107;-61
2022/03/24 06:36:40;;;;;;;184.95;162.25;;;;;;;16.05;28.41;94656.34;5115323;27;20596;-61
2022/03/24 06:39:06;;;;;;;184.73;163.52;;;;;;;16.05;28.42;94652.88;5110158;27;20080;-61
2022/03/24 06:41:32;;;;;;;202.35;176.05;;;;;;;16.05;28.58;94656.34;5118231;27;20096;-61
2022/03/24 06:43:57;;;;;;;187.75;164.57;;;;;;;16.06;28.49;94651.69;5126491;27;20058;-61
2022/03/24 06:46:25;;;;;;;189.80;168.10;;;;;;;16.08;28.57;94657.44;5125212;27;20606;-60
2022/03/24 06:48:51;;;;;;;187.60;163.15;;;;;;;16.09;28.26;94659.69;5115470;27;20044;-62
2022/03/24 06:51:17;;;;;;;187.93;165.23;;;;;;;16.07;28.68;94655.91;5118944;27;20134;-60
2022/03/24 06:53:43;;;;;;;190.23;166.85;;;;;;;16.03;28.49;94656.00;5110500;27;20043;-60
2022/03/24 06:56:09;;;;;;;186.05;162.00;;;;;;;16.03;28.56;94650.59;5117938;27;20067;-62
2022/03/24 06:58:35;;;;;;;188.65;166.05;;;;;;;16.01;28.58;94658.38;5113678;27;20055;-62
2022/03/24 07:01:00;;;;;;;188.85;165.63;;;;;;;16.04;28.71;94649.41;5117817;27;20084;-63
2022/03/24 07:03:26;;;;;;;191.48;168.82;;;;;;;16.04;28.78;94660.22;5126314;27;20120;-62
2022/03/24 07:05:52;;;;;;;190.32;168.05;;;;;;;16.03;28.88;94660.63;5122199;27;20087;-62
2022/03/24 07:08:17;;;;;;;190.88;167.18;;;;;;;15.97;28.53;94662.34;5125328;27;20035;-63
2022/03/24 07:10:43;;;;;;;186.57;164.05;;;;;;;15.93;28.68;94659.72;5120779;27;20057;-62
2022/03/24 07:13:08;;;;;;;187.70;163.35;;;;;;;15.90;28.72;94665.22;5123061;27;20092;-62
2022/03/24 07:15:34;;;;;;;186.55;164.55;;;;;;;15.88;28.64;94662.19;5111117;27;20125;-62
2022/03/24 07:17:59;;;;;;;193.75;168.85;;;;;;;15.92;28.73;94665.53;5119740;27;20051;-62
2022/03/24 07:20:25;;;;;;;187.77;164.82;;;;;;;15.97;28.61;94665.78;5119051;27;20054;-61
2022/03/24 07:22:51;;;;;;;188.77;163.60;;;;;;;16.02;28.57;94661.81;5115609;27;20051;-60
2022/03/24 07:25:16;;;;;;;188.80;166.55;;;;;;;16.04;28.48;94665.59;5120680;27;20124;-60
2022/03/24 07:27:42;;;;;;;184.77;163.02;;;;;;;16.05;28.36;94666.38;5115665;27;20040;-60
2022/03/24 07:30:09;;;;;;;191.13;166.65;;;;;;;16.06;28.66;94668.63;5123226;27;20051;-60
2022/03/24 07:32:36;;;;;;;189.70;164.85;;;;;;;16.06;28.70;94665.19;5121392;27;20043;-60
2022/03/24 07:35:04;;;;;;;189.18;166.93;;;;;;;16.06;28.61;94663.25;5115944;27;20085;-60
2022/03/24 07:37:31;;;;;;;188.13;165.35;;;;;;;16.08;28.80;94662.81;5122678;27;20084;-61
2022/03/24 07:39:57;;;;;;;200.48;174.95;;;;;;;16.06;28.68;94665.94;5110022;27;20130;-61
2022/03/24 07:42:23;;;;;;;188.27;167.25;;;;;;;16.08;28.75;94655.47;5116947;27;20101;-60
2022/03/24 07:44:48;;;;;;;192.10;168.27;;;;;;;16.08;28.96;94666.28;5109656;27;20139;-60
2022/03/24 07:47:14;;;;;;;189.13;166.45;;;;;;;16.08;28.66;94665.53;5121831;27;20054;-61
2022/03/24 07:49:40;;;;;;;184.10;163.18;;;;;;;16.10;28.86;94671.25;5123130;27;20112;-61
2022/03/24 07:52:12;;;;;;;187.65;165.68;;;;;;;16.09;28.83;94667.03;5126015;27;20468;-60
2022/03/24 07:55:00;;;;;;;187.80;165.48;;;;;;;16.08;28.92;94673.63;5122755;27;20063;-61
2022/03/24 07:57:30;;;;;;;186.23;161.13;;;;;;;16.05;28.97;94667.13;5106565;27;20115;-60
2022/03/24 07:59:57;;;;;;;188.02;165.32;;;;;;;16.05;28.68;94659.03;5114727;27;20086;-60
2022/03/24 08:02:23;;;;;;;192.32;167.25;;;;;;;16.04;28.96;94665.59;5122142;27;20066;-60
2022/03/24 08:04:49;;;;;;;190.25;166.70;;;;;;;16.05;28.86;94664.44;5113054;27;20040;-61
2022/03/24 08:07:15;;;;;;;188.75;167.40;;;;;;;16.07;28.88;94664.75;5116029;28;20488;-61
2022/03/24 08:09:40;;;;;;;188.07;164.60;;;;;;;16.07;28.87;94662.06;5119714;27;20149;-61
2022/03/24 08:12:08;;;;;;;187.90;166.85;;;;;;;16.09;28.85;94670.50;5125238;27;20487;-60
2022/03/24 08:14:34;;;;;;;191.55;168.35;;;;;;;16.10;28.79;94663.91;5120877;27;20047;-60
2022/03/24 08:17:00;;;;;;;199.90;174.98;;;;;;;16.11;28.68;94661.97;5119598;27;20032;-62
2022/03/24 08:19:26;;;;;;;196.55;172.15;;;;;;;16.11;28.90;94657.34;5109956;27;20081;-61
2022/03/24 08:21:51;;;;;;;202.85;178.02;;;;;;;16.11;28.92;94662.72;5104018;27;20054;-61
2022/03/24 08:24:17;;;;;;;205.40;177.40;;;;;;;16.12;29.11;94660.78;5105504;27;20050;-60
2022/03/24 08:26:43;;;;;;;191.23;168.77;;;;;;;16.12;28.65;94658.09;5105146;27;20039;-61
2022/03/24 08:29:09;;;;;;;193.20;171.02;;;;;;;16.12;28.98;94658.84;5115571;27;20107;-61
2022/03/24 08:31:35;;;;;;;196.43;171.77;;;;;;;16.12;28.82;94658.09;5125561;27;20039;-62
2022/03/24 08:34:00;;;;;;;189.63;165.13;;;;;;;16.13;28.86;94665.00;5116647;27;20039;-61
2022/03/24 08:36:26;;;;;;;190.80;167.43;;;;;;;16.13;28.92;94656.91;5125589;27;20050;-60
2022/03/24 08:38:52;;;;;;;191.23;168.43;;;;;;;16.12;28.97;94661.53;5122880;27;20119;-60
2022/03/24 08:41:17;;;;;;;197.98;170.80;;;;;;;16.13;28.91;94660.38;5120032;27;20043;-60
2022/03/24 08:43:43;;;;;;;194.63;169.88;;;;;;;16.13;28.79;94659.59;5122875;27;20055;-61
2022/03/24 08:46:10;;;;;;;189.85;165.77;;;;;;;16.13;28.90;94665.00;5117951;27;20077;-61
2022/03/24 08:48:36;;;;;;;200.80;176.85;;;;;;;16.13;28.83;94660.38;5112477;27;20047;-61
2022/03/24 08:51:02;;;;;;;188.13;164.10;;;;;;;16.11;28.93;94656.56;5115267;27;20043;-60
2022/03/24 08:53:28;;;;;;;187.25;163.90;;;;;;;16.10;28.92;94663.16;5126059;27;20471;-61
2022/03/24 08:55:55;;;;;;;187.98;164.02;;;;;;;16.09;28.86;94659.69;5124177;27;20043;-61
2022/03/24 08:58:21;;;;;;;197.30;172.02;;;;;;;16.11;28.99;94656.56;5113646;27;20051;-60
2022/03/24 09:00:47;;;;;;;185.73;164.20;;;;;;;16.11;28.82;94659.28;5122267;27;20510;-61
2022/03/24 09:03:13;;;;;;;200.05;173.25;;;;;;;16.10;28.83;94655.06;5124130;27;20039;-60
2022/03/24 09:05:39;;;;;;;203.98;176.40;;;;;;;16.09;28.40;94654.31;5118541;27;20096;-61
2022/03/24 09:08:04;;;;;;;188.55;164.77;;;;;;;16.09;28.83;94654.31;5117615;27;20052;-60
2022/03/24 09:10:32;;;;;;;189.15;165.95;;;;;;;16.09;28.87;94648.16;5119207;27;20051;-60
2022/03/24 09:12:57;;;;;;;189.85;168.18;;;;;;;16.05;28.65;94650.19;5122931;27;20066;-61
2022/03/24 09:15:23;;;;;;;192.73;168.93;;;;;;;16.03;28.76;94650.59;5121346;27;20544;-61
2022/03/24 09:17:50;;;;;;;189.60;167.05;;;;;;;16.05;28.67;94650.19;5114875;27;20039;-61
2022/03/24 09:20:23;;;;;;;191.85;169.05;;;;;;;16.06;28.62;94651.69;5120739;27;20087;-61
2022/03/24 09:22:49;;;;;;;191.93;167.45;;;;;;;16.07;28.75;94647.81;5126550;27;20108;-60
2022/03/24 09:25:16;;;;;;;190.13;165.82;;;;;;;16.06;28.47;94651.69;5122328;27;20039;-61
2022/03/24 09:27:43;;;;;;;191.90;167.13;;;;;;;16.03;28.22;94639.06;5120301;27;20045;-61
2022/03/24 09:30:12;;;;;;;196.25;171.70;;;;;;;16.02;28.30;94638.31;5118234;27;20252;-60
2022/03/24 09:32:38;;;;;;;194.25;170.35;;;;;;;16.00;28.36;94643.34;5124016;27;20063;-62
2022/03/24 09:35:05;;;;;;;203.98;175.98;;;;;;;15.99;28.43;94635.69;5123715;27;20059;-61
2022/03/24 09:37:33;;;;;;;189.68;164.07;;;;;;;16.00;28.24;94634.50;5125548;27;20043;-62
2022/03/24 09:40:02;;;;;;;190.13;165.27;;;;;;;15.99;28.17;94631.06;5117401;27;20035;-61
2022/03/24 09:42:28;;;;;;;190.80;165.10;;;;;;;15.99;28.32;94635.69;5122209;27;20043;-61
2022/03/24 09:45:01;;;;;;;199.65;173.65;;;;;;;16.00;28.21;94631.81;5117103;27;20054;-61
2022/03/24 09:47:28;;;;;;;208.13;175.48;;;;;;;15.99;28.31;94635.69;5101036;27;20047;-61
2022/03/24 09:49:53;;;;;;;199.45;175.50;;;;;;;16.03;28.17;94634.41;5103300;27;20070;-60
2022/03/24 09:52:19;;;;;;;196.98;172.43;;;;;;;16.04;28.38;94632.47;5118704;27;20121;-61
2022/03/24 09:54:47;;;;;;;185.25;163.32;;;;;;;16.02;28.35;94632.16;5115181;27;20051;-61
2022/03/24 09:57:14;;;;;;;200.07;176.20;;;;;;;16.01;28.45;94627.94;5120032;27;20048;-61
2022/03/24 09:59:40;;;;;;;193.45;168.23;;;;;;;16.06;28.29;94630.88;5118298;27;20043;-61
2022/03/24 10:02:07;;;;;;;192.43;168.80;;;;;;;16.03;28.52;94623.63;5112625;27;20047;-62
2022/03/24 10:04:51;;;;;;;187.10;163.85;;;;;;;16.02;28.23;94624.06;5127087;27;20043;-62
2022/03/24 10:07:25;;;;;;;197.43;171.52;;;;;;;15.98;28.11;94618.75;5120165;27;20059;-61
2022/03/24 10:09:54;;;;;;;189.73;167.50;;;;;;;15.98;28.06;94620.69;5120290;27;20123;-62
2022/03/24 10:12:21;;;;;;;197.50;170.07;;;;;;;15.96;28.02;94618.41;5114308;27;20461;-60
2022/03/24 10:14:57;;;;;;;193.15;167.95;;;;;;;15.91;28.15;94618.94;5112658;27;20130;-62
2022/03/24 10:17:23;;;;;;;192.98;168.82;;;;;;;15.88;28.15;94622.47;5125866;27;20447;-61
2022/03/24 10:20:19;;;;;;;194.80;172.02;;;;;;;15.90;27.95;94620.13;5129707;27;20413;-62
2022/03/24 10:23:02;;;;;;;185.15;159.38;;;;;;;15.91;27.76;94621.63;5112271;27;20123;-61
2022/03/24 10:25:31;;;;;;;182.25;158.55;;;;;;;15.90;27.91;94613.97;5109547;27;20043;-61
2022/03/24 10:28:05;;;;;;;192.48;168.13;;;;;;;15.93;27.77;94618.50;5114910;27;20046;-61
2022/03/24 10:30:53;;;;;;;195.20;166.18;;;;;;;15.89;27.69;94609.75;5118253;27;20043;-62
2022/03/24 10:33:40;;;;;;;189.75;163.88;;;;;;;15.93;27.48;94613.13;5128826;27;20454;-62
2022/03/24 10:36:15;;;;;;;193.55;166.50;;;;;;;15.87;27.45;94607.47;5122484;27;20040;-61
2022/03/24 10:38:43;;;;;;;190.95;163.18;;;;;;;15.81;27.66;94609.94;5118374;27;20349;-61
2022/03/24 10:41:12;;;;;;;190.15;165.27;;;;;;;15.90;27.37;94603.94;5120853;27;20468;-61
2022/03/24 10:43:38;;;;;;;193.00;164.73;;;;;;;15.89;27.21;94602.41;5119698;27;20118;-61
2022/03/24 10:46:17;;;;;;;195.80;168.80;;;;;;;15.86;27.03;94602.50;5125338;27;20069;-61
2022/03/24 10:48:44;;;;;;;189.35;163.63;;;;;;;15.91;27.21;94602.75;5120939;27;20054;-60
2022/03/24 10:51:09;;;;;;;193.48;169.50;;;;;;;15.94;27.09;94603.84;5114826;27;20546;-61
2022/03/24 10:53:42;;;;;;;195.30;168.90;;;;;;;15.95;27.08;94595.31;5115300;27;20043;-61
2022/03/24 10:56:14;;;;;;;189.77;166.52;;;;;;;15.88;27.11;94594.75;5119710;27;20134;-61
2022/03/24 10:58:42;;;;;;;196.43;169.63;;;;;;;15.88;27.02;94594.75;5125656;27;20055;-61
2022/03/24 11:01:12;;;;;;;193.10;170.02;;;;;;;15.89;27.04;94588.16;5123079;27;20126;-61
2022/03/24 11:03:39;;;;;;;193.18;167.00;;;;;;;15.93;26.94;94584.19;5118387;27;20449;-62
2022/03/24 11:06:17;;;;;;;185.60;163.40;;;;;;;15.96;26.95;94582.59;5124543;27;20114;-62
2022/03/24 11:08:44;;;;;;;192.05;164.85;;;;;;;15.94;27.23;94579.56;5108848;27;20043;-61